Time;durP1;ratioP1;P1;durP2;ratioP2;P2;SDS_P1;SDS_P2;PMS_P1;PMS_P2;Temp;Humidity;BMP_temperature;BMP_pressure;BME280_temperature;BME280_humidity;BME280_pressure;Samples;Min_cycle;Max_cycle;Signal;HPM_P1;HPM_P2
2024/01/27 00:01:45;;;;;;;22.65;3.60;;;3.60;99.90;;;;;;5028555;28;20134;-70
2024/01/27 00:04:11;;;;;;;14.40;3.33;;;3.60;99.90;;;;;;5038931;28;20390;-70
2024/01/27 00:06:36;;;;;;;18.23;2.67;;;3.60;99.90;;;;;;5039525;28;20170;-71
2024/01/27 00:09:02;;;;;;;15.52;2.65;;;3.60;99.90;;;;;;5042575;28;20034;-69
2024/01/27 00:11:28;;;;;;;15.18;3.10;;;3.60;99.90;;;;;;5045794;28;20045;-70
2024/01/27 00:13:54;;;;;;;24.33;3.78;;;3.60;99.90;;;;;;5045009;28;20144;-70
2024/01/27 00:16:19;;;;;;;14.77;2.97;;;3.60;99.90;;;;;;5037888;28;20442;-69
2024/01/27 00:18:46;;;;;;;21.17;2.90;;;3.60;99.90;;;;;;5043010;28;20473;-72
2024/01/27 00:21:11;;;;;;;16.95;3.05;;;3.60;99.90;;;;;;5035034;28;20535;-69
2024/01/27 00:23:37;;;;;;;21.33;3.45;;;3.60;99.90;;;;;;5031734;28;20037;-69
2024/01/27 00:26:04;;;;;;;18.63;3.58;;;3.60;99.90;;;;;;5029903;28;20040;-70
2024/01/27 00:28:29;;;;;;;23.90;4.53;;;3.60;99.90;;;;;;5030224;28;20037;-70
2024/01/27 00:30:55;;;;;;;15.55;3.40;;;3.60;99.90;;;;;;5028560;28;20575;-70
2024/01/27 00:33:21;;;;;;;18.35;3.13;;;3.60;99.90;;;;;;5015756;28;20760;-70
2024/01/27 00:35:47;;;;;;;25.92;3.92;;;3.50;99.90;;;;;;5039595;28;20040;-69
2024/01/27 00:38:13;;;;;;;18.88;2.90;;;3.60;99.90;;;;;;5045105;28;20036;-71
2024/01/27 00:40:38;;;;;;;29.85;3.92;;;3.60;99.90;;;;;;5033489;28;20049;-74
2024/01/27 00:43:04;;;;;;;16.98;3.15;;;3.60;99.90;;;;;;5036622;28;20397;-71
2024/01/27 00:45:30;;;;;;;19.27;3.85;;;3.60;99.90;;;;;;5037220;28;20080;-70
2024/01/27 00:47:56;;;;;;;20.00;3.80;;;3.50;99.90;;;;;;5031424;28;20056;-71
2024/01/27 00:50:22;;;;;;;21.48;2.85;;;3.50;99.90;;;;;;5042940;28;20053;-68
2024/01/27 00:52:48;;;;;;;17.67;3.42;;;3.50;99.90;;;;;;5030653;28;20048;-69
2024/01/27 00:55:14;;;;;;;16.38;2.95;;;3.50;99.90;;;;;;5038468;28;20049;-71
2024/01/27 00:57:39;;;;;;;16.33;3.47;;;3.60;99.90;;;;;;5021848;28;20086;-68
2024/01/27 01:00:07;;;;;;;17.95;3.03;;;3.60;99.90;;;;;;5049420;28;20099;-70
2024/01/27 01:02:33;;;;;;;11.63;2.55;;;3.60;99.90;;;;;;5025182;28;20081;-71
2024/01/27 01:04:59;;;;;;;17.77;3.67;;;3.60;99.90;;;;;;5038852;28;20080;-70
2024/01/27 01:07:25;;;;;;;11.68;3.00;;;3.60;99.90;;;;;;5035557;28;20030;-69
2024/01/27 01:09:50;;;;;;;14.35;2.78;;;3.50;99.90;;;;;;5031010;28;20080;-70
2024/01/27 01:12:16;;;;;;;21.80;4.13;;;3.50;99.90;;;;;;5032700;28;20032;-70
2024/01/27 01:14:43;;;;;;;14.05;2.80;;;3.50;99.90;;;;;;5033351;28;20123;-70
2024/01/27 01:17:08;;;;;;;15.50;3.03;;;3.50;99.90;;;;;;5029639;28;20144;-68
2024/01/27 01:19:34;;;;;;;17.63;3.05;;;3.50;99.90;;;;;;5030563;28;20037;-69
2024/01/27 01:22:00;;;;;;;17.27;3.08;;;3.50;99.90;;;;;;5034647;28;20049;-69
2024/01/27 01:24:25;;;;;;;17.75;3.28;;;3.50;99.90;;;;;;5028950;28;20037;-70
2024/01/27 01:26:51;;;;;;;20.00;2.80;;;3.50;99.90;;;;;;5031902;28;20072;-70
2024/01/27 01:29:16;;;;;;;15.18;2.97;;;3.40;99.90;;;;;;5030500;28;20041;-68
2024/01/27 01:31:43;;;;;;;24.08;3.40;;;3.40;99.90;;;;;;5024766;28;20057;-70
2024/01/27 01:34:08;;;;;;;21.95;3.92;;;3.40;99.90;;;;;;5029556;28;20142;-70
2024/01/27 01:36:34;;;;;;;23.85;4.30;;;3.40;99.90;;;;;;5046049;28;20045;-70
2024/01/27 01:38:59;;;;;;;23.85;4.03;;;3.40;99.90;;;;;;5032151;28;20033;-70
2024/01/27 01:41:25;;;;;;;16.33;3.40;;;3.40;99.90;;;;;;5044855;28;20040;-70
2024/01/27 01:43:51;;;;;;;16.60;3.08;;;3.40;99.90;;;;;;5030408;28;20033;-70
2024/01/27 01:46:17;;;;;;;17.17;3.35;;;3.30;99.90;;;;;;5029968;28;20087;-70
2024/01/27 01:48:43;;;;;;;14.15;3.47;;;3.30;99.90;;;;;;5035288;28;20045;-70
2024/01/27 01:51:09;;;;;;;16.20;3.50;;;3.30;99.90;;;;;;5044471;28;20047;-70
2024/01/27 01:53:34;;;;;;;11.73;3.47;;;3.30;99.90;;;;;;5022190;28;20107;-71
2024/01/27 01:56:01;;;;;;;13.65;3.13;;;3.30;99.90;;;;;;5028848;28;20041;-69
2024/01/27 01:58:33;;;;;;;15.15;2.70;;;3.20;99.90;;;;;;5030436;28;20124;-71
2024/01/27 02:01:00;;;;;;;15.65;3.17;;;3.30;99.90;;;;;;5030226;28;20568;-69
2024/01/27 02:03:26;;;;;;;19.13;3.03;;;3.30;99.90;;;;;;5011421;28;20037;-71
2024/01/27 02:05:51;;;;;;;18.98;3.63;;;3.30;99.90;;;;;;5038664;28;20038;-72
2024/01/27 02:08:17;;;;;;;13.57;2.75;;;3.20;99.90;;;;;;5036113;28;20041;-71
2024/01/27 02:10:43;;;;;;;21.58;3.63;;;3.30;99.90;;;;;;5038300;28;20045;-70
2024/01/27 02:13:19;;;;;;;13.80;2.63;;;3.30;99.90;;;;;;5035515;28;20119;-70
2024/01/27 02:15:45;;;;;;;14.73;3.13;;;3.30;99.90;;;;;;5039523;28;20052;-68
2024/01/27 02:18:10;;;;;;;14.27;2.70;;;3.30;99.90;;;;;;5041509;28;20030;-69
2024/01/27 02:20:37;;;;;;;19.33;3.00;;;3.30;99.90;;;;;;5016535;28;20545;-70
2024/01/27 02:23:04;;;;;;;19.13;3.13;;;3.30;99.90;;;;;;5028790;28;20120;-71
2024/01/27 02:25:32;;;;;;;10.48;2.53;;;3.30;99.90;;;;;;5030697;28;20469;-70
2024/01/27 02:27:58;;;;;;;15.35;2.63;;;3.30;99.90;;;;;;5045885;28;20033;-70
2024/01/27 02:30:24;;;;;;;16.00;3.13;;;3.30;99.90;;;;;;5032022;28;22030;-70
2024/01/27 02:32:50;;;;;;;15.95;2.50;;;3.30;99.90;;;;;;5023213;28;20048;-70
2024/01/27 02:35:16;;;;;;;20.15;2.80;;;3.30;99.90;;;;;;5036653;28;20041;-70
2024/01/27 02:37:42;;;;;;;18.65;3.60;;;3.30;99.90;;;;;;5039822;28;20107;-69
2024/01/27 02:40:11;;;;;;;11.85;2.50;;;3.30;99.90;;;;;;5039456;28;20037;-72
2024/01/27 02:42:37;;;;;;;14.73;2.83;;;3.30;99.90;;;;;;5037772;28;20056;-70
2024/01/27 02:45:04;;;;;;;18.15;2.67;;;3.30;99.90;;;;;;5043478;28;20083;-70
2024/01/27 02:47:30;;;;;;;12.13;2.78;;;3.30;99.90;;;;;;5038896;28;20033;-70
2024/01/27 02:49:55;;;;;;;18.75;3.28;;;3.30;99.90;;;;;;5031655;28;20038;-72
2024/01/27 02:52:21;;;;;;;19.05;3.80;;;3.30;99.90;;;;;;5022128;28;20730;-69
2024/01/27 02:54:47;;;;;;;13.68;2.63;;;3.30;99.90;;;;;;5023901;28;20094;-70
2024/01/27 02:57:15;;;;;;;14.25;3.45;;;3.30;99.90;;;;;;5035695;28;20046;-70
2024/01/27 02:59:41;;;;;;;19.08;3.80;;;3.40;99.90;;;;;;5037312;28;20044;-72
2024/01/27 03:02:06;;;;;;;12.90;2.55;;;3.30;99.90;;;;;;5037469;28;20045;-71
2024/01/27 03:04:32;;;;;;;14.30;2.63;;;3.40;99.90;;;;;;5029529;28;20041;-67
2024/01/27 03:06:58;;;;;;;19.42;2.97;;;3.40;99.90;;;;;;5034060;28;20041;-69
2024/01/27 03:09:23;;;;;;;13.15;2.70;;;3.40;99.90;;;;;;5039398;28;20692;-70
2024/01/27 03:11:49;;;;;;;10.80;2.38;;;3.40;99.90;;;;;;5043256;28;20098;-69
2024/01/27 03:14:14;;;;;;;17.42;3.15;;;3.40;99.90;;;;;;5042112;28;20040;-67
2024/01/27 03:16:40;;;;;;;20.05;3.15;;;3.30;99.90;;;;;;5028738;28;20037;-70
2024/01/27 03:19:06;;;;;;;21.75;3.05;;;3.30;99.90;;;;;;5034743;28;20065;-69
2024/01/27 03:21:32;;;;;;;12.82;2.53;;;3.30;99.90;;;;;;5036916;28;20045;-68
2024/01/27 03:23:58;;;;;;;16.50;2.58;;;3.30;99.90;;;;;;5041800;28;20470;-71
2024/01/27 03:26:23;;;;;;;22.88;2.40;;;3.30;99.90;;;;;;5032726;28;20053;-68
2024/01/27 03:28:49;;;;;;;14.02;2.25;;;3.30;99.90;;;;;;5048909;28;20041;-70
2024/01/27 03:31:15;;;;;;;18.50;2.85;;;3.30;99.90;;;;;;5038554;28;20509;-68
2024/01/27 03:33:40;;;;;;;15.95;2.65;;;3.30;99.90;;;;;;5039875;28;20083;-66
2024/01/27 03:36:13;;;;;;;13.57;3.03;;;3.20;99.90;;;;;;5032519;28;20041;-69
2024/01/27 03:38:40;;;;;;;20.20;3.28;;;3.20;99.90;;;;;;5041066;28;20033;-70
2024/01/27 03:41:06;;;;;;;14.68;3.03;;;3.20;99.90;;;;;;5034666;28;20064;-69
2024/01/27 03:43:33;;;;;;;11.25;3.15;;;3.20;99.90;;;;;;5052371;28;20033;-69
2024/01/27 03:45:58;;;;;;;11.88;2.95;;;3.20;99.90;;;;;;5044052;28;20045;-70
2024/01/27 03:48:24;;;;;;;12.35;2.55;;;3.20;99.90;;;;;;5043555;28;20091;-67
2024/01/27 03:50:50;;;;;;;11.75;2.45;;;3.10;99.90;;;;;;5032897;28;20041;-70
2024/01/27 03:53:15;;;;;;;15.27;2.90;;;3.10;99.90;;;;;;5038987;28;20041;-67
2024/01/27 03:55:41;;;;;;;9.25;2.20;;;3.00;99.90;;;;;;5054334;28;20052;-70
2024/01/27 03:58:07;;;;;;;15.88;3.30;;;3.00;99.90;;;;;;5049869;28;20144;-70
2024/01/27 04:00:33;;;;;;;15.95;2.95;;;3.00;99.90;;;;;;5031964;28;20060;-69
2024/01/27 04:03:02;;;;;;;15.88;2.80;;;3.00;99.90;;;;;;5025991;28;20038;-69
2024/01/27 04:05:31;;;;;;;15.18;3.17;;;3.00;99.90;;;;;;5046239;28;20064;-70
2024/01/27 04:07:56;;;;;;;14.88;2.85;;;2.90;99.90;;;;;;5036060;28;20036;-69
2024/01/27 04:10:23;;;;;;;21.75;3.28;;;3.00;99.90;;;;;;5048956;28;20203;-70
2024/01/27 04:12:49;;;;;;;15.32;3.40;;;3.00;99.90;;;;;;5044856;28;20049;-71
2024/01/27 04:15:15;;;;;;;22.50;3.90;;;3.00;99.90;;;;;;5054376;28;20063;-70
2024/01/27 04:17:41;;;;;;;22.08;3.70;;;3.00;99.90;;;;;;5040242;28;20033;-69
2024/01/27 04:20:08;;;;;;;20.33;3.35;;;3.10;99.90;;;;;;5027845;28;20413;-70
2024/01/27 04:22:34;;;;;;;11.70;2.83;;;3.00;99.90;;;;;;5033447;28;20028;-68
2024/01/27 04:25:00;;;;;;;17.33;2.90;;;3.00;99.90;;;;;;5044146;28;20474;-69
2024/01/27 04:27:30;;;;;;;17.63;3.20;;;3.00;99.90;;;;;;5031850;28;20056;-71
2024/01/27 04:29:56;;;;;;;14.57;2.50;;;3.10;99.90;;;;;;5032899;28;20053;-69
2024/01/27 04:32:23;;;;;;;16.50;3.20;;;3.00;99.90;;;;;;5042285;28;20071;-69
2024/01/27 04:34:49;;;;;;;11.90;2.78;;;3.00;99.90;;;;;;5035756;28;20037;-69
2024/01/27 04:37:14;;;;;;;17.50;3.47;;;3.10;99.90;;;;;;5025021;28;20044;-69
2024/01/27 04:39:40;;;;;;;21.75;3.95;;;3.10;99.90;;;;;;5028753;28;20033;-69
2024/01/27 04:42:06;;;;;;;13.20;2.95;;;3.00;99.90;;;;;;5046590;28;20507;-70
2024/01/27 04:44:32;;;;;;;12.80;2.38;;;3.10;99.90;;;;;;5040079;28;20033;-70
2024/01/27 04:46:58;;;;;;;15.70;3.40;;;3.10;99.90;;;;;;5016973;28;20052;-68
2024/01/27 04:49:24;;;;;;;15.60;2.78;;;3.10;99.90;;;;;;5044230;28;20530;-70
2024/01/27 04:51:49;;;;;;;13.85;3.72;;;3.10;99.90;;;;;;5049029;28;20048;-69
2024/01/27 04:54:15;;;;;;;24.90;3.67;;;3.10;99.90;;;;;;5031930;28;20056;-69
2024/01/27 04:56:41;;;;;;;15.90;3.20;;;3.00;99.90;;;;;;5037266;28;20068;-69
2024/01/27 04:59:07;;;;;;;16.60;3.00;;;3.00;99.90;;;;;;5040124;28;20112;-70
2024/01/27 05:01:33;;;;;;;17.20;3.10;;;3.00;99.90;;;;;;5049956;28;20106;-69
2024/01/27 05:03:59;;;;;;;16.10;3.05;;;3.10;99.90;;;;;;5042797;28;20029;-69
2024/01/27 05:06:25;;;;;;;14.85;2.78;;;3.10;99.90;;;;;;5042616;28;20125;-70
2024/01/27 05:08:50;;;;;;;16.00;2.90;;;3.10;99.90;;;;;;5033767;28;20048;-70
2024/01/27 05:11:24;;;;;;;11.95;3.22;;;3.10;99.90;;;;;;5028900;28;20033;-69
2024/01/27 05:13:50;;;;;;;19.75;3.28;;;3.00;99.90;;;;;;5044354;28;20049;-69
2024/01/27 05:16:16;;;;;;;17.95;3.38;;;2.90;99.90;;;;;;5035054;28;20504;-73
2024/01/27 05:18:41;;;;;;;17.50;3.30;;;2.90;99.90;;;;;;5037917;28;20482;-69
2024/01/27 05:21:07;;;;;;;18.70;3.20;;;2.90;99.90;;;;;;5049804;28;20036;-70
2024/01/27 05:23:33;;;;;;;14.88;3.28;;;2.80;99.90;;;;;;5038648;28;20034;-67
2024/01/27 05:25:58;;;;;;;18.48;3.63;;;2.80;99.90;;;;;;5035160;28;20037;-69
2024/01/27 05:28:24;;;;;;;15.57;3.13;;;2.90;99.90;;;;;;5029807;28;20866;-70
2024/01/27 05:30:49;;;;;;;14.15;3.33;;;2.80;99.90;;;;;;5046244;28;20056;-70
2024/01/27 05:33:16;;;;;;;23.27;3.97;;;2.80;99.90;;;;;;5047626;28;20079;-69
2024/01/27 05:35:41;;;;;;;19.65;3.15;;;2.80;99.90;;;;;;5030665;28;20139;-69
2024/01/27 05:38:07;;;;;;;17.10;3.90;;;2.80;99.90;;;;;;5033010;28;20115;-70
2024/01/27 05:40:33;;;;;;;13.80;3.10;;;2.80;99.90;;;;;;5035735;28;20433;-70
2024/01/27 05:42:58;;;;;;;13.43;2.60;;;2.80;99.90;;;;;;5044139;28;20120;-69
2024/01/27 05:45:24;;;;;;;14.63;2.85;;;2.70;99.90;;;;;;5052696;28;20037;-69
2024/01/27 05:47:50;;;;;;;19.42;3.55;;;2.70;99.90;;;;;;5032144;28;20037;-70
2024/01/27 05:50:16;;;;;;;21.45;3.25;;;2.70;99.90;;;;;;5043138;28;20036;-70
2024/01/27 05:52:41;;;;;;;13.30;3.08;;;2.70;99.90;;;;;;5015721;28;20413;-69
2024/01/27 05:55:08;;;;;;;13.60;3.65;;;2.70;99.90;;;;;;5028871;28;20041;-67
2024/01/27 05:57:33;;;;;;;11.38;3.13;;;2.70;99.90;;;;;;5046470;28;20033;-69
2024/01/27 06:00:00;;;;;;;13.85;5.03;;;2.70;99.90;;;;;;5024671;28;20405;-68
2024/01/27 06:02:25;;;;;;;21.23;3.85;;;2.70;99.90;;;;;;5052371;28;20037;-68
2024/01/27 06:04:51;;;;;;;21.23;3.42;;;2.70;99.90;;;;;;5042884;28;20514;-69
2024/01/27 06:07:16;;;;;;;15.07;3.40;;;2.70;99.90;;;;;;5042940;28;20044;-70
2024/01/27 06:09:42;;;;;;;13.20;2.90;;;2.70;99.90;;;;;;5028860;28;20164;-70
2024/01/27 06:12:08;;;;;;;15.68;3.63;;;2.70;99.90;;;;;;5023563;28;20123;-68
2024/01/27 06:14:33;;;;;;;20.83;3.70;;;2.70;99.90;;;;;;5040965;28;20052;-70
2024/01/27 06:16:59;;;;;;;16.85;3.53;;;2.70;99.90;;;;;;5037132;28;20139;-69
2024/01/27 06:19:25;;;;;;;21.20;4.03;;;2.70;99.90;;;;;;5031196;28;20037;-70
2024/01/27 06:21:51;;;;;;;13.23;3.58;;;2.70;99.90;;;;;;5031913;28;20423;-69
2024/01/27 06:24:16;;;;;;;16.38;3.75;;;2.70;99.90;;;;;;5015982;28;20064;-69
2024/01/27 06:26:42;;;;;;;13.32;3.00;;;2.70;99.90;;;;;;5029995;28;20476;-69
2024/01/27 06:29:07;;;;;;;17.65;3.15;;;2.70;99.90;;;;;;5033249;28;20032;-69
2024/01/27 06:31:33;;;;;;;19.73;3.72;;;2.70;99.90;;;;;;5027901;28;20874;-67
2024/01/27 06:33:59;;;;;;;14.15;3.28;;;2.70;99.90;;;;;;5025755;28;20041;-68
2024/01/27 06:36:27;;;;;;;14.63;3.30;;;2.70;99.90;;;;;;5036874;28;20389;-69
2024/01/27 06:38:52;;;;;;;19.83;4.40;;;2.70;99.90;;;;;;5023506;28;20072;-69
2024/01/27 06:41:18;;;;;;;15.38;3.85;;;2.70;99.90;;;;;;5031075;28;20852;-69
2024/01/27 06:43:43;;;;;;;27.45;4.82;;;2.80;99.90;;;;;;5035337;28;20421;-69
2024/01/27 06:46:09;;;;;;;24.55;4.38;;;2.70;99.90;;;;;;5042348;28;20691;-69
2024/01/27 06:48:35;;;;;;;18.30;3.88;;;2.70;99.90;;;;;;5044620;28;20045;-69
2024/01/27 06:51:00;;;;;;;22.33;4.05;;;2.70;99.90;;;;;;5047473;28;20033;-69
2024/01/27 06:53:26;;;;;;;16.05;4.10;;;2.80;99.90;;;;;;5034803;28;20270;-69
2024/01/27 06:55:52;;;;;;;20.80;3.78;;;2.80;99.90;;;;;;5046233;28;20423;-68
2024/01/27 06:58:17;;;;;;;19.63;4.70;;;2.70;99.90;;;;;;5043982;28;20033;-70
2024/01/27 07:00:44;;;;;;;24.63;4.68;;;2.70;99.90;;;;;;5048916;28;20041;-70
2024/01/27 07:03:10;;;;;;;17.48;4.25;;;2.70;99.90;;;;;;5038261;28;20041;-69
2024/01/27 07:05:40;;;;;;;19.20;3.95;;;2.70;99.90;;;;;;5042396;28;20135;-68
2024/01/27 07:08:09;;;;;;;24.35;4.97;;;2.70;99.90;;;;;;5045302;28;20040;-69
2024/01/27 07:10:35;;;;;;;18.92;4.20;;;2.70;99.90;;;;;;5044159;28;20041;-69
2024/01/27 07:13:01;;;;;;;21.45;5.03;;;2.70;99.90;;;;;;5054667;28;20049;-68
2024/01/27 07:15:27;;;;;;;18.98;4.85;;;2.70;99.90;;;;;;5060234;28;20045;-68
2024/01/27 07:17:53;;;;;;;20.38;4.72;;;2.70;99.90;;;;;;5030286;28;20064;-70
2024/01/27 07:20:20;;;;;;;20.20;5.32;;;2.70;99.90;;;;;;5044113;28;20461;-71
2024/01/27 07:22:47;;;;;;;16.75;4.88;;;2.70;99.90;;;;;;5045616;28;20060;-68
2024/01/27 07:25:13;;;;;;;19.92;5.97;;;2.70;99.90;;;;;;5046137;28;20421;-69
2024/01/27 07:27:39;;;;;;;21.98;5.93;;;2.70;99.90;;;;;;5047421;28;20081;-70
2024/01/27 07:30:08;;;;;;;18.60;5.00;;;2.70;99.90;;;;;;5048630;28;20113;-70
2024/01/27 07:32:33;;;;;;;18.45;5.82;;;2.70;99.90;;;;;;5052837;28;20033;-68
2024/01/27 07:34:59;;;;;;;19.65;5.38;;;2.80;99.90;;;;;;5053460;28;20420;-69
2024/01/27 07:37:24;;;;;;;16.77;5.70;;;2.80;99.90;;;;;;5033923;28;20087;-68
2024/01/27 07:39:50;;;;;;;22.95;6.10;;;2.80;99.90;;;;;;5040765;28;20059;-69
2024/01/27 07:42:16;;;;;;;20.33;6.38;;;2.80;99.90;;;;;;5052564;28;20033;-70
2024/01/27 07:44:42;;;;;;;20.10;5.80;;;2.80;99.90;;;;;;5049424;28;20412;-69
2024/01/27 07:47:08;;;;;;;25.50;6.40;;;2.80;99.90;;;;;;5045966;28;20120;-70
2024/01/27 07:49:34;;;;;;;21.70;6.05;;;2.80;99.90;;;;;;5037438;28;20117;-69
2024/01/27 07:52:00;;;;;;;22.65;6.00;;;2.80;99.90;;;;;;5051115;28;20127;-71
2024/01/27 07:54:25;;;;;;;21.00;5.72;;;2.90;99.90;;;;;;5047433;28;20040;-70
2024/01/27 07:56:51;;;;;;;20.77;6.47;;;2.80;99.90;;;;;;5050275;28;20442;-69
2024/01/27 07:59:17;;;;;;;22.05;6.40;;;2.90;99.90;;;;;;5033908;28;20592;-71
2024/01/27 08:01:44;;;;;;;24.92;7.10;;;2.90;99.90;;;;;;5042749;28;20445;-69
2024/01/27 08:04:10;;;;;;;25.85;7.03;;;2.90;99.90;;;;;;5050815;28;20093;-70
2024/01/27 08:06:47;;;;;;;26.33;7.53;;;3.00;99.90;;;;;;5034939;28;20036;-71
2024/01/27 08:09:12;;;;;;;22.20;6.28;;;3.00;99.90;;;;;;5044645;28;20040;-67
2024/01/27 08:11:38;;;;;;;22.05;6.38;;;3.10;99.90;;;;;;5045833;28;20316;-69
2024/01/27 08:14:04;;;;;;;18.42;6.65;;;3.20;99.90;;;;;;5033511;28;20048;-69
2024/01/27 08:16:29;;;;;;;19.40;6.70;;;3.20;99.90;;;;;;5052800;28;20461;-71
2024/01/27 08:18:55;;;;;;;23.33;6.85;;;3.30;99.90;;;;;;5050098;28;20033;-69
2024/01/27 08:21:21;;;;;;;22.70;6.22;;;3.30;99.90;;;;;;5049296;28;20370;-70
2024/01/27 08:23:46;;;;;;;24.75;6.43;;;3.40;99.90;;;;;;5030375;28;20393;-70
2024/01/27 08:26:12;;;;;;;23.17;6.80;;;3.40;99.90;;;;;;5037510;28;20481;-71
2024/01/27 08:28:38;;;;;;;27.40;7.07;;;3.50;99.90;;;;;;5044092;28;20128;-69
2024/01/27 08:31:04;;;;;;;16.17;5.80;;;3.60;99.90;;;;;;5031305;28;20072;-69
2024/01/27 08:33:30;;;;;;;19.48;6.60;;;3.60;99.90;;;;;;5051021;28;20048;-70
2024/01/27 08:35:56;;;;;;;21.70;6.38;;;3.70;99.90;;;;;;5034976;28;20136;-70
2024/01/27 08:38:22;;;;;;;17.27;5.97;;;3.80;99.90;;;;;;5048683;28;20036;-70
2024/01/27 08:40:47;;;;;;;19.90;6.18;;;3.80;99.90;;;;;;5047894;28;20492;-71
2024/01/27 08:43:13;;;;;;;21.30;6.47;;;3.90;99.90;;;;;;5043763;28;20037;-70
2024/01/27 08:45:39;;;;;;;20.13;6.28;;;3.90;99.90;;;;;;5050952;28;20044;-69
2024/01/27 08:48:06;;;;;;;21.75;6.03;;;3.90;99.90;;;;;;5050632;28;20037;-69
2024/01/27 08:50:31;;;;;;;18.80;6.40;;;4.00;99.90;;;;;;5051332;28;20139;-70
2024/01/27 08:52:57;;;;;;;20.13;5.90;;;4.00;99.90;;;;;;5048326;28;20040;-70
2024/01/27 08:55:24;;;;;;;21.90;6.63;;;4.00;99.90;;;;;;5032011;28;20166;-71
2024/01/27 08:57:53;;;;;;;23.58;5.57;;;4.10;99.90;;;;;;5050591;28;20052;-70
2024/01/27 09:00:19;;;;;;;24.70;6.38;;;4.10;99.90;;;;;;5050447;28;20039;-69
2024/01/27 09:02:45;;;;;;;26.98;6.32;;;4.10;99.90;;;;;;5050221;28;20044;-69
2024/01/27 09:05:11;;;;;;;23.08;6.15;;;4.20;99.90;;;;;;5033029;28;20060;-69
2024/01/27 09:07:36;;;;;;;21.58;7.05;;;4.20;99.90;;;;;;5049110;28;20053;-67
2024/01/27 09:10:02;;;;;;;16.33;5.50;;;4.30;99.90;;;;;;5023827;28;20041;-70
2024/01/27 09:12:28;;;;;;;18.45;6.05;;;4.30;99.90;;;;;;5031152;28;20045;-70
2024/01/27 09:14:54;;;;;;;19.92;6.18;;;4.30;99.90;;;;;;5040947;28;20136;-70
2024/01/27 09:17:20;;;;;;;19.73;6.70;;;4.30;99.90;;;;;;5050478;28;20040;-70
2024/01/27 09:19:46;;;;;;;22.20;5.95;;;4.40;99.90;;;;;;5048713;28;20073;-71
2024/01/27 09:22:12;;;;;;;14.52;5.72;;;4.50;99.90;;;;;;5050296;28;20079;-70
2024/01/27 09:24:37;;;;;;;25.73;6.95;;;4.50;99.90;;;;;;5047139;28;20077;-70
2024/01/27 09:27:03;;;;;;;17.38;5.85;;;4.60;99.90;;;;;;5049544;28;20540;-72
2024/01/27 09:29:29;;;;;;;16.95;6.88;;;4.70;99.90;;;;;;5049512;28;20036;-71
2024/01/27 09:31:55;;;;;;;19.38;6.43;;;4.70;99.90;;;;;;5032721;28;20049;-69
2024/01/27 09:34:21;;;;;;;17.60;5.90;;;4.80;99.90;;;;;;5049432;28;20094;-68
2024/01/27 09:36:47;;;;;;;15.77;5.70;;;4.80;99.90;;;;;;5049196;28;20068;-69
2024/01/27 09:39:13;;;;;;;18.30;5.78;;;4.90;99.90;;;;;;5046681;28;20072;-70
2024/01/27 09:41:40;;;;;;;14.30;5.95;;;4.90;99.90;;;;;;5045524;28;20032;-71
2024/01/27 09:44:06;;;;;;;15.70;5.65;;;5.00;99.90;;;;;;5049772;28;20071;-68
2024/01/27 09:46:32;;;;;;;26.83;6.35;;;5.00;99.90;;;;;;5031347;28;20084;-69
2024/01/27 09:48:58;;;;;;;18.10;6.03;;;5.00;99.90;;;;;;5031396;28;20041;-69
2024/01/27 09:51:25;;;;;;;17.58;5.63;;;5.10;99.90;;;;;;5042413;28;20036;-72
2024/01/27 09:53:52;;;;;;;19.05;7.13;;;5.20;99.90;;;;;;5046994;28;20037;-70
2024/01/27 09:56:18;;;;;;;19.33;6.03;;;5.20;99.90;;;;;;5049796;28;20060;-71
2024/01/27 09:58:45;;;;;;;22.08;7.18;;;5.30;99.90;;;;;;5049123;28;20101;-70
2024/01/27 10:01:12;;;;;;;22.50;6.10;;;5.40;99.90;;;;;;5031342;28;20037;-70
2024/01/27 10:03:40;;;;;;;16.55;5.53;;;5.40;99.90;;;;;;5042580;28;20047;-70
2024/01/27 10:06:09;;;;;;;14.32;6.20;;;5.50;99.90;;;;;;5045404;28;20041;-70
2024/01/27 10:08:35;;;;;;;16.58;5.97;;;5.60;99.90;;;;;;5029374;28;20080;-69
2024/01/27 10:11:07;;;;;;;19.45;6.38;;;5.70;99.90;;;;;;5049409;28;20029;-69
2024/01/27 10:13:33;;;;;;;14.32;6.07;;;5.80;99.90;;;;;;5048434;28;20072;-72
2024/01/27 10:16:05;;;;;;;19.90;6.88;;;5.90;99.90;;;;;;5046992;28;20500;-70
2024/01/27 10:18:32;;;;;;;20.17;6.32;;;5.90;99.90;;;;;;5047807;28;20029;-69
2024/01/27 10:20:58;;;;;;;22.58;6.32;;;6.00;99.90;;;;;;5048584;28;20068;-69
2024/01/27 10:23:24;;;;;;;14.77;6.60;;;6.00;99.90;;;;;;5045622;28;20075;-70
2024/01/27 10:25:50;;;;;;;18.08;5.78;;;6.00;99.90;;;;;;5043753;28;20106;-68
2024/01/27 10:28:16;;;;;;;17.02;5.60;;;6.10;99.90;;;;;;5048948;28;20076;-71
2024/01/27 10:30:43;;;;;;;20.13;5.90;;;6.20;99.90;;;;;;5049442;28;20061;-69
2024/01/27 10:33:18;;;;;;;19.63;5.82;;;6.20;99.90;;;;;;5030861;28;20045;-69
2024/01/27 10:35:44;;;;;;;15.18;5.53;;;6.40;99.90;;;;;;5045978;28;20048;-70
2024/01/27 10:38:10;;;;;;;18.25;6.07;;;6.40;99.90;;;;;;5047884;28;20045;-71
2024/01/27 10:40:36;;;;;;;25.48;6.18;;;6.40;99.90;;;;;;5049173;28;20032;-69
2024/01/27 10:43:07;;;;;;;14.90;5.65;;;6.50;99.90;;;;;;5046144;28;20547;-70
2024/01/27 10:45:40;;;;;;;22.75;6.00;;;6.60;99.90;;;;;;5041438;28;20048;-69
2024/01/27 10:48:10;;;;;;;22.67;6.20;;;6.70;99.90;;;;;;5048847;28;20073;-71
2024/01/27 10:50:38;;;;;;;21.88;6.22;;;6.70;99.90;;;;;;5049269;28;20121;-69
2024/01/27 10:53:08;;;;;;;23.17;7.13;;;6.80;99.90;;;;;;5045031;28;20029;-70
2024/01/27 10:55:37;;;;;;;18.67;6.30;;;6.80;99.90;;;;;;5047330;28;20105;-69
2024/01/27 10:58:04;;;;;;;18.33;6.28;;;6.90;99.90;;;;;;5032904;28;20041;-69
2024/01/27 11:00:32;;;;;;;13.90;5.53;;;7.00;99.90;;;;;;5049026;28;20025;-70
2024/01/27 11:02:59;;;;;;;26.25;15.55;;;7.00;99.90;;;;;;5045675;28;20175;-69
2024/01/27 11:05:28;;;;;;;16.98;6.28;;;7.00;99.90;;;;;;5049140;28;20072;-69
2024/01/27 11:07:54;;;;;;;35.92;25.02;;;7.10;99.90;;;;;;5037279;28;20049;-68
2024/01/27 11:10:19;;;;;;;21.00;9.35;;;7.10;99.90;;;;;;5044128;28;20040;-70
2024/01/27 11:12:47;;;;;;;16.77;7.53;;;7.30;99.90;;;;;;5051028;28;20397;-69
2024/01/27 11:15:13;;;;;;;13.63;5.45;;;7.20;99.90;;;;;;5050944;28;20155;-70
2024/01/27 11:17:42;;;;;;;15.75;5.55;;;7.30;99.90;;;;;;5033368;28;20120;-70
2024/01/27 11:20:11;;;;;;;15.77;5.90;;;7.40;99.90;;;;;;5050469;28;20124;-68
2024/01/27 11:22:37;;;;;;;16.60;5.43;;;7.40;99.90;;;;;;5034733;28;20079;-67
2024/01/27 11:25:14;;;;;;;18.40;7.03;;;7.50;99.90;;;;;;5041677;28;20047;-69
2024/01/27 11:27:41;;;;;;;18.92;6.50;;;7.60;99.90;;;;;;5041923;28;20065;-69
2024/01/27 11:30:28;;;;;;;15.60;4.55;;;7.60;99.90;;;;;;5050197;28;20527;-71
2024/01/27 11:33:00;;;;;;;19.77;5.47;;;7.60;99.90;;;;;;5052246;28;20040;-70
2024/01/27 11:35:25;;;;;;;16.42;5.78;;;7.70;99.90;;;;;;5043523;28;20037;-69
2024/01/27 11:37:51;;;;;;;14.55;5.30;;;7.70;99.90;;;;;;5025421;28;20052;-70
2024/01/27 11:40:17;;;;;;;19.38;7.45;;;7.70;99.90;;;;;;5052808;28;20040;-69
2024/01/27 11:42:43;;;;;;;18.00;5.60;;;7.70;99.90;;;;;;5048315;28;20461;-70
2024/01/27 11:45:09;;;;;;;17.15;5.40;;;7.80;99.90;;;;;;5036384;28;20041;-69
2024/01/27 11:47:35;;;;;;;19.83;5.15;;;7.80;99.90;;;;;;5048862;28;20137;-69
2024/01/27 11:50:01;;;;;;;14.30;4.65;;;7.90;99.90;;;;;;5049690;28;20120;-69
2024/01/27 11:52:28;;;;;;;15.82;5.05;;;8.00;99.90;;;;;;5037226;28;20029;-71
2024/01/27 11:54:54;;;;;;;15.20;4.40;;;8.00;99.90;;;;;;5038454;28;20041;-68
2024/01/27 11:57:20;;;;;;;15.15;4.70;;;8.00;99.90;;;;;;5045630;28;20390;-70
2024/01/27 11:59:45;;;;;;;17.30;4.47;;;8.20;99.90;;;;;;5033044;28;20048;-70
2024/01/27 12:02:11;;;;;;;13.15;4.43;;;8.20;99.90;;;;;;5052521;28;20033;-71
2024/01/27 12:04:37;;;;;;;16.52;4.93;;;8.10;99.90;;;;;;5021391;28;20127;-69
2024/01/27 12:07:03;;;;;;;14.02;4.05;;;8.10;99.90;;;;;;5035578;28;20381;-69
2024/01/27 12:09:28;;;;;;;15.90;4.43;;;8.20;99.90;;;;;;5029561;28;20041;-67
2024/01/27 12:11:54;;;;;;;16.35;4.68;;;8.30;99.90;;;;;;5046110;28;20126;-70
2024/01/27 12:14:20;;;;;;;15.73;4.63;;;8.30;99.90;;;;;;5051919;28;20052;-71
2024/01/27 12:16:47;;;;;;;13.27;4.22;;;8.30;99.90;;;;;;5047977;28;20090;-70
2024/01/27 12:19:13;;;;;;;14.60;4.13;;;8.30;99.90;;;;;;5047744;28;20047;-68
2024/01/27 12:21:46;;;;;;;17.17;4.15;;;8.40;99.90;;;;;;5035930;28;20111;-71
2024/01/27 12:24:17;;;;;;;15.68;4.53;;;8.50;99.90;;;;;;5047544;28;20393;-69
2024/01/27 12:26:42;;;;;;;11.13;3.63;;;8.50;99.90;;;;;;5045109;28;20067;-69
2024/01/27 12:29:08;;;;;;;16.10;4.30;;;8.50;99.90;;;;;;5026700;28;20127;-69
2024/01/27 12:31:33;;;;;;;12.57;3.70;;;8.50;99.90;;;;;;5052207;28;20053;-72
2024/01/27 12:33:59;;;;;;;18.70;4.57;;;8.50;99.90;;;;;;5045583;28;20037;-68
2024/01/27 12:36:25;;;;;;;13.98;3.80;;;8.50;99.90;;;;;;5045807;28;20098;-69
2024/01/27 12:38:58;;;;;;;13.32;3.60;;;8.60;99.90;;;;;;5038005;28;20049;-70
2024/01/27 12:41:29;;;;;;;18.13;4.38;;;8.50;99.90;;;;;;5038925;28;20041;-69
2024/01/27 12:43:55;;;;;;;19.23;4.07;;;8.70;99.90;;;;;;5045493;28;20045;-72